sensor_id;sensor_type;location;lat;lon;timestamp;pressure;altitude;pressure_sealevel;temperature;humidity
36234;BME280;43467;50.890;5.982;2022-12-18T00:01:42;101300.22;;;0.35;55.27
36234;BME280;43467;50.890;5.982;2022-12-18T00:04:22;101314.13;;;0.36;55.58
36234;BME280;43467;50.890;5.982;2022-12-18T00:06:48;101313.25;;;0.35;55.36
36234;BME280;43467;50.890;5.982;2022-12-18T00:09:14;101313.13;;;0.26;55.29
36234;BME280;43467;50.890;5.982;2022-12-18T00:11:39;101312.25;;;0.29;55.47
36234;BME280;43467;50.890;5.982;2022-12-18T00:14:05;101306.84;;;0.12;56.19
36234;BME280;43467;50.890;5.982;2022-12-18T00:16:30;101305.88;;;0.04;56.25
36234;BME280;43467;50.890;5.982;2022-12-18T00:18:58;101312.22;;;0.26;55.90
36234;BME280;43467;50.890;5.982;2022-12-18T00:21:26;101328.63;;;0.19;55.79
36234;BME280;43467;50.890;5.982;2022-12-18T00:23:52;101325.16;;;0.18;55.97
36234;BME280;43467;50.890;5.982;2022-12-18T00:26:22;101319.97;;;0.21;55.79
36234;BME280;43467;50.890;5.982;2022-12-18T00:28:48;101323.41;;;0.17;55.52
36234;BME280;43467;50.890;5.982;2022-12-18T00:31:19;101314.69;;;0.12;55.45
36234;BME280;43467;50.890;5.982;2022-12-18T00:33:45;101324.09;;;0.06;55.21
36234;BME280;43467;50.890;5.982;2022-12-18T00:36:16;101328.53;;;0.11;55.15
36234;BME280;43467;50.890;5.982;2022-12-18T00:38:43;101311.19;;;0.13;55.17
36234;BME280;43467;50.890;5.982;2022-12-18T00:41:10;101312.09;;;0.17;55.40
36234;BME280;43467;50.890;5.982;2022-12-18T00:43:37;101311.47;;;0.34;55.41
36234;BME280;43467;50.890;5.982;2022-12-18T00:46:03;101306.16;;;0.25;55.07
36234;BME280;43467;50.890;5.982;2022-12-18T00:48:28;101307.88;;;0.25;55.07
36234;BME280;43467;50.890;5.982;2022-12-18T00:50:54;101295.72;;;0.25;55.07
36234;BME280;43467;50.890;5.982;2022-12-18T00:53:19;101286.00;;;0.11;54.93
36234;BME280;43467;50.890;5.982;2022-12-18T00:55:45;101289.25;;;-0.04;55.14
36234;BME280;43467;50.890;5.982;2022-12-18T00:58:12;101290.03;;;-0.11;55.12
36234;BME280;43467;50.890;5.982;2022-12-18T01:00:38;101286.66;;;-0.06;55.75
36234;BME280;43467;50.890;5.982;2022-12-18T01:03:04;101285.69;;;-0.11;55.13
36234;BME280;43467;50.890;5.982;2022-12-18T01:05:30;101285.75;;;-0.06;55.53
36234;BME280;43467;50.890;5.982;2022-12-18T01:07:56;101285.66;;;-0.12;55.11
36234;BME280;43467;50.890;5.982;2022-12-18T01:10:22;101296.94;;;-0.12;55.42
36234;BME280;43467;50.890;5.982;2022-12-18T01:12:47;101291.81;;;-0.09;55.22
36234;BME280;43467;50.890;5.982;2022-12-18T01:15:14;101279.47;;;-0.20;55.20
36234;BME280;43467;50.890;5.982;2022-12-18T01:17:40;101270.81;;;-0.19;54.95
36234;BME280;43467;50.890;5.982;2022-12-18T01:20:07;101274.25;;;-0.20;54.90
36234;BME280;43467;50.890;5.982;2022-12-18T01:22:32;101280.59;;;-0.05;54.72
36234;BME280;43467;50.890;5.982;2022-12-18T01:24:58;101275.44;;;0.02;54.52
36234;BME280;43467;50.890;5.982;2022-12-18T01:27:23;101277.22;;;0.03;53.70
36234;BME280;43467;50.890;5.982;2022-12-18T01:29:49;101275.63;;;0.12;54.07
36234;BME280;43467;50.890;5.982;2022-12-18T01:32:14;101267.75;;;0.08;54.04
36234;BME280;43467;50.890;5.982;2022-12-18T01:34:40;101270.94;;;-0.13;54.24
36234;BME280;43467;50.890;5.982;2022-12-18T01:37:05;101283.25;;;0.02;54.04
36234;BME280;43467;50.890;5.982;2022-12-18T01:39:30;101284.16;;;0.02;53.63
36234;BME280;43467;50.890;5.982;2022-12-18T01:42:00;101305.88;;;0.06;53.77
36234;BME280;43467;50.890;5.982;2022-12-18T01:47:39;101291.97;;;0.05;53.50
36234;BME280;43467;50.890;5.982;2022-12-18T01:50:11;101291.00;;;-0.05;53.55
36234;BME280;43467;50.890;5.982;2022-12-18T01:52:40;101281.25;;;-0.18;53.80
36234;BME280;43467;50.890;5.982;2022-12-18T01:55:06;101279.69;;;-0.07;53.77
36234;BME280;43467;50.890;5.982;2022-12-18T01:57:33;101279.69;;;-0.07;53.33
36234;BME280;43467;50.890;5.982;2022-12-18T02:00:01;101271.88;;;-0.07;52.97
36234;BME280;43467;50.890;5.982;2022-12-18T02:02:28;101282.34;;;-0.02;52.68
36234;BME280;43467;50.890;5.982;2022-12-18T02:04:54;101278.84;;;-0.06;52.72
36234;BME280;43467;50.890;5.982;2022-12-18T02:07:37;101278.72;;;-0.13;52.77
36234;BME280;43467;50.890;5.982;2022-12-18T02:13:19;101267.41;;;-0.15;52.61
36234;BME280;43467;50.890;5.982;2022-12-18T02:18:50;101275.03;;;-0.27;52.67
36234;BME280;43467;50.890;5.982;2022-12-18T02:21:40;101275.16;;;-0.20;53.11
36234;BME280;43467;50.890;5.982;2022-12-18T02:24:41;101271.66;;;-0.20;52.40
36234;BME280;43467;50.890;5.982;2022-12-18T02:27:13;101263.00;;;-0.21;52.07
36234;BME280;43467;50.890;5.982;2022-12-18T02:29:46;101258.91;;;-0.02;51.70
36234;BME280;43467;50.890;5.982;2022-12-18T02:32:16;101271.81;;;-0.11;51.53
36234;BME280;43467;50.890;5.982;2022-12-18T02:34:43;101272.78;;;-0.03;51.42
36234;BME280;43467;50.890;5.982;2022-12-18T02:37:13;101269.38;;;0.01;50.91
36234;BME280;43467;50.890;5.982;2022-12-18T02:39:41;101270.34;;;0.09;50.62
36234;BME280;43467;50.890;5.982;2022-12-18T02:42:08;101264.13;;;-0.02;51.02
36234;BME280;43467;50.890;5.982;2022-12-18T02:44:35;101259.69;;;-0.09;50.59
36234;BME280;43467;50.890;5.982;2022-12-18T02:47:10;101254.47;;;-0.11;50.82
36234;BME280;43467;50.890;5.982;2022-12-18T02:57:40;101235.38;;;-0.13;51.01
36234;BME280;43467;50.890;5.982;2022-12-18T03:00:16;101239.72;;;-0.10;51.39
36234;BME280;43467;50.890;5.982;2022-12-18T03:02:54;101233.50;;;-0.21;51.75
36234;BME280;43467;50.890;5.982;2022-12-18T03:05:31;101235.22;;;-0.22;51.70
36234;BME280;43467;50.890;5.982;2022-12-18T03:08:05;101226.47;;;-0.27;52.02
36234;BME280;43467;50.890;5.982;2022-12-18T03:10:35;101228.09;;;-0.35;52.20
36234;BME280;43467;50.890;5.982;2022-12-18T03:13:14;101225.44;;;-0.39;52.19
36234;BME280;43467;50.890;5.982;2022-12-18T03:15:44;101217.63;;;-0.41;52.15
36234;BME280;43467;50.890;5.982;2022-12-18T03:18:15;101214.88;;;-0.50;52.88
36234;BME280;43467;50.890;5.982;2022-12-18T03:20:43;101209.63;;;-0.52;52.68
36234;BME280;43467;50.890;5.982;2022-12-18T03:23:12;101207.00;;;-0.55;53.24
36234;BME280;43467;50.890;5.982;2022-12-18T03:25:41;101223.38;;;-0.62;53.32
36234;BME280;43467;50.890;5.982;2022-12-18T03:28:12;101218.91;;;-0.69;53.48
36234;BME280;43467;50.890;5.982;2022-12-18T03:30:40;101207.59;;;-0.74;53.43
36234;BME280;43467;50.890;5.982;2022-12-18T03:35:58;101188.13;;;-0.97;54.73
36234;BME280;43467;50.890;5.982;2022-12-18T03:38:23;101202.09;;;-0.92;54.49
36234;BME280;43467;50.890;5.982;2022-12-18T03:41:05;101194.19;;;-0.98;54.26
36234;BME280;43467;50.890;5.982;2022-12-18T03:43:50;101203.81;;;-0.93;54.65
36234;BME280;43467;50.890;5.982;2022-12-18T03:46:24;101208.13;;;-0.95;54.80
36234;BME280;43467;50.890;5.982;2022-12-18T03:49:08;101210.75;;;-0.91;55.05
36234;BME280;43467;50.890;5.982;2022-12-18T03:51:49;101203.84;;;-0.91;54.53
36234;BME280;43467;50.890;5.982;2022-12-18T03:54:17;101202.00;;;-0.97;54.69
36234;BME280;43467;50.890;5.982;2022-12-18T03:56:46;101198.47;;;-1.00;54.82
36234;BME280;43467;50.890;5.982;2022-12-18T03:59:13;101201.03;;;-1.03;54.80
36234;BME280;43467;50.890;5.982;2022-12-18T04:01:43;101195.97;;;-0.96;54.80
36234;BME280;43467;50.890;5.982;2022-12-18T04:04:12;101195.03;;;-0.99;54.57
36234;BME280;43467;50.890;5.982;2022-12-18T04:06:40;101198.59;;;-0.94;54.65
36234;BME280;43467;50.890;5.982;2022-12-18T04:09:07;101204.53;;;-1.01;54.45
36234;BME280;43467;50.890;5.982;2022-12-18T04:11:33;101197.72;;;-0.93;54.24
36234;BME280;43467;50.890;5.982;2022-12-18T04:13:58;101192.59;;;-0.90;54.28
36234;BME280;43467;50.890;5.982;2022-12-18T04:16:25;101198.66;;;-0.89;54.17
36234;BME280;43467;50.890;5.982;2022-12-18T04:18:51;101182.09;;;-0.96;54.51
36234;BME280;43467;50.890;5.982;2022-12-18T04:21:16;101184.84;;;-0.87;54.54
36234;BME280;43467;50.890;5.982;2022-12-18T04:23:42;101186.44;;;-0.94;54.87
36234;BME280;43467;50.890;5.982;2022-12-18T04:26:07;101181.22;;;-0.98;54.87
36234;BME280;43467;50.890;5.982;2022-12-18T04:28:33;101177.63;;;-1.05;55.10
36234;BME280;43467;50.890;5.982;2022-12-18T04:30:58;101175.81;;;-1.10;55.30
36234;BME280;43467;50.890;5.982;2022-12-18T04:33:23;101172.22;;;-1.18;54.95
36234;BME280;43467;50.890;5.982;2022-12-18T04:35:49;101159.22;;;-1.18;55.21
36234;BME280;43467;50.890;5.982;2022-12-18T04:38:14;101159.13;;;-1.23;55.37
36234;BME280;43467;50.890;5.982;2022-12-18T04:40:40;101160.06;;;-1.19;54.95
36234;BME280;43467;50.890;5.982;2022-12-18T04:43:06;101166.13;;;-1.19;55.29
36234;BME280;43467;50.890;5.982;2022-12-18T04:45:31;101166.06;;;-1.22;55.08
36234;BME280;43467;50.890;5.982;2022-12-18T04:47:58;101175.63;;;-1.21;55.51
36234;BME280;43467;50.890;5.982;2022-12-18T04:50:23;101176.53;;;-1.17;55.28
36234;BME280;43467;50.890;5.982;2022-12-18T04:52:49;101180.19;;;-1.08;55.22
36234;BME280;43467;50.890;5.982;2022-12-18T04:55:14;101190.59;;;-1.05;55.40
36234;BME280;43467;50.890;5.982;2022-12-18T04:57:40;101192.25;;;-1.11;55.06
36234;BME280;43467;50.890;5.982;2022-12-18T05:00:06;101203.44;;;-1.15;55.49
36234;BME280;43467;50.890;5.982;2022-12-18T05:02:32;101208.72;;;-1.09;55.26
36234;BME280;43467;50.890;5.982;2022-12-18T05:04:57;101199.31;;;-1.03;55.57
36234;BME280;43467;50.890;5.982;2022-12-18T05:07:22;101194.22;;;-0.97;55.25
36234;BME280;43467;50.890;5.982;2022-12-18T05:09:47;101206.16;;;-1.08;55.50
36234;BME280;43467;50.890;5.982;2022-12-18T05:12:13;101201.81;;;-1.10;55.43
36234;BME280;43467;50.890;5.982;2022-12-18T05:14:38;101204.41;;;-1.09;55.74
36234;BME280;43467;50.890;5.982;2022-12-18T05:17:03;101207.72;;;-1.17;55.83
36234;BME280;43467;50.890;5.982;2022-12-18T05:19:29;101201.69;;;-1.16;55.70
36234;BME280;43467;50.890;5.982;2022-12-18T05:21:54;101203.41;;;-1.17;56.13
36234;BME280;43467;50.890;5.982;2022-12-18T05:24:19;101210.50;;;-1.07;55.68
36234;BME280;43467;50.890;5.982;2022-12-18T05:26:45;101200.25;;;-0.99;55.40
36234;BME280;43467;50.890;5.982;2022-12-18T05:29:10;101204.56;;;-1.00;55.55
36234;BME280;43467;50.890;5.982;2022-12-18T05:31:38;101188.81;;;-1.10;55.87
36234;BME280;43467;50.890;5.982;2022-12-18T05:34:03;101190.59;;;-1.05;55.21
36234;BME280;43467;50.890;5.982;2022-12-18T05:36:29;101187.22;;;-1.02;55.41
36234;BME280;43467;50.890;5.982;2022-12-18T05:38:54;101180.13;;;-1.11;55.45
36234;BME280;43467;50.890;5.982;2022-12-18T05:41:20;101191.53;;;-1.03;55.32
36234;BME280;43467;50.890;5.982;2022-12-18T05:43:45;101192.41;;;-1.02;55.54
36234;BME280;43467;50.890;5.982;2022-12-18T05:46:16;101196.75;;;-1.00;55.52
36234;BME280;43467;50.890;5.982;2022-12-18T05:48:45;101199.41;;;-0.98;55.48
36234;BME280;43467;50.890;5.982;2022-12-18T05:51:13;101198.56;;;-0.96;54.80
36234;BME280;43467;50.890;5.982;2022-12-18T05:53:40;101205.47;;;-0.96;55.03
36234;BME280;43467;50.890;5.982;2022-12-18T05:56:09;101194.19;;;-0.98;55.00
36234;BME280;43467;50.890;5.982;2022-12-18T05:58:34;101195.75;;;-1.08;55.42
36234;BME280;43467;50.890;5.982;2022-12-18T06:01:15;101184.50;;;-1.08;55.27
36234;BME280;43467;50.890;5.982;2022-12-18T06:03:41;101203.38;;;-1.18;55.39
36234;BME280;43467;50.890;5.982;2022-12-18T06:06:18;101197.31;;;-1.19;55.46
36234;BME280;43467;50.890;5.982;2022-12-18T06:08:44;101196.47;;;-1.16;55.72
36234;BME280;43467;50.890;5.982;2022-12-18T06:11:09;101196.44;;;-1.19;55.52
36234;BME280;43467;50.890;5.982;2022-12-18T06:13:34;101189.53;;;-1.19;55.53
36234;BME280;43467;50.890;5.982;2022-12-18T06:16:04;101185.03;;;-1.27;55.87
36234;BME280;43467;50.890;5.982;2022-12-18T06:18:30;101187.69;;;-1.24;55.85
36234;BME280;43467;50.890;5.982;2022-12-18T06:20:56;101191.88;;;-1.32;55.54
36234;BME280;43467;50.890;5.982;2022-12-18T06:23:22;101193.59;;;-1.33;55.82
36234;BME280;43467;50.890;5.982;2022-12-18T06:25:48;101185.63;;;-1.44;56.13
36234;BME280;43467;50.890;5.982;2022-12-18T06:28:13;101189.94;;;-1.43;56.10
36234;BME280;43467;50.890;5.982;2022-12-18T06:30:38;101202.00;;;-1.46;56.32
36234;BME280;43467;50.890;5.982;2022-12-18T06:33:04;101195.09;;;-1.47;56.06
36234;BME280;43467;50.890;5.982;2022-12-18T06:35:29;101195.84;;;-1.53;56.40
36234;BME280;43467;50.890;5.982;2022-12-18T06:37:56;101178.44;;;-1.57;56.17
36234;BME280;43467;50.890;5.982;2022-12-18T06:40:21;101199.31;;;-1.51;56.34
36234;BME280;43467;50.890;5.982;2022-12-18T06:42:47;101206.28;;;-1.50;56.23
36234;BME280;43467;50.890;5.982;2022-12-18T06:45:15;101198.47;;;-1.51;56.31
36234;BME280;43467;50.890;5.982;2022-12-18T06:47:41;101207.97;;;-1.52;56.15
36234;BME280;43467;50.890;5.982;2022-12-18T06:50:07;101200.25;;;-1.49;56.22
36234;BME280;43467;50.890;5.982;2022-12-18T06:52:32;101187.81;;;-1.65;56.51
36234;BME280;43467;50.890;5.982;2022-12-18T06:54:58;101198.47;;;-1.50;56.58
36234;BME280;43467;50.890;5.982;2022-12-18T06:57:23;101202.03;;;-1.45;56.34
36234;BME280;43467;50.890;5.982;2022-12-18T06:59:49;101198.28;;;-1.60;56.79
36234;BME280;43467;50.890;5.982;2022-12-18T07:02:14;101204.38;;;-1.58;56.49
36234;BME280;43467;50.890;5.982;2022-12-18T07:04:40;101200.81;;;-1.65;56.63
36234;BME280;43467;50.890;5.982;2022-12-18T07:07:05;101190.47;;;-1.62;56.87
36234;BME280;43467;50.890;5.982;2022-12-18T07:09:30;101190.38;;;-1.68;56.95
36234;BME280;43467;50.890;5.982;2022-12-18T07:11:56;101188.66;;;-1.66;56.89
36234;BME280;43467;50.890;5.982;2022-12-18T07:14:21;101183.56;;;-1.61;56.51
36234;BME280;43467;50.890;5.982;2022-12-18T07:16:46;101181.94;;;-1.55;56.33
36234;BME280;43467;50.890;5.982;2022-12-18T07:19:12;101190.78;;;-1.45;56.28
36234;BME280;43467;50.890;5.982;2022-12-18T07:21:37;101182.97;;;-1.45;56.26
36234;BME280;43467;50.890;5.982;2022-12-18T07:24:03;101191.69;;;-1.43;56.28
36234;BME280;43467;50.890;5.982;2022-12-18T07:26:28;101164.50;;;-1.62;56.20
36234;BME280;43467;50.890;5.982;2022-12-18T07:28:57;101182.00;;;-1.52;56.12
36234;BME280;43467;50.890;5.982;2022-12-18T07:31:23;101162.88;;;-1.57;56.89
36234;BME280;43467;50.890;5.982;2022-12-18T07:33:50;101159.44;;;-1.56;56.74
36234;BME280;43467;50.890;5.982;2022-12-18T07:36:16;101153.53;;;-1.47;56.39
36234;BME280;43467;50.890;5.982;2022-12-18T07:38:42;101135.97;;;-1.59;56.28
36234;BME280;43467;50.890;5.982;2022-12-18T07:41:12;101136.88;;;-1.58;56.64
36234;BME280;43467;50.890;5.982;2022-12-18T07:43:38;101127.31;;;-1.61;56.86
36234;BME280;43467;50.890;5.982;2022-12-18T07:46:04;101131.75;;;-1.54;56.49
36234;BME280;43467;50.890;5.982;2022-12-18T07:48:30;101129.94;;;-1.59;56.84
36234;BME280;43467;50.890;5.982;2022-12-18T07:50:59;101121.41;;;-1.51;56.56
36234;BME280;43467;50.890;5.982;2022-12-18T07:53:26;101112.78;;;-1.51;56.26
36234;BME280;43467;50.890;5.982;2022-12-18T07:56:02;101107.50;;;-1.56;56.37
36234;BME280;43467;50.890;5.982;2022-12-18T07:58:29;101114.53;;;-1.49;56.77
36234;BME280;43467;50.890;5.982;2022-12-18T08:01:05;101104.03;;;-1.55;56.29
36234;BME280;43467;50.890;5.982;2022-12-18T08:03:31;101106.66;;;-1.53;56.52
36234;BME280;43467;50.890;5.982;2022-12-18T08:06:04;101111.97;;;-1.47;56.12
36234;BME280;43467;50.890;5.982;2022-12-18T08:08:32;101104.09;;;-1.52;56.15
36234;BME280;43467;50.890;5.982;2022-12-18T08:10:57;101098.91;;;-1.50;56.82
36234;BME280;43467;50.890;5.982;2022-12-18T08:13:23;101101.59;;;-1.46;56.49
36234;BME280;43467;50.890;5.982;2022-12-18T08:15:57;101106.03;;;-1.38;56.18
36234;BME280;43467;50.890;5.982;2022-12-18T08:18:22;101112.06;;;-1.41;56.31
36234;BME280;43467;50.890;5.982;2022-12-18T08:20:48;101103.50;;;-1.34;55.83
36234;BME280;43467;50.890;5.982;2022-12-18T08:23:13;101100.13;;;-1.31;56.03
36234;BME280;43467;50.890;5.982;2022-12-18T08:25:38;101105.38;;;-1.27;55.91
36234;BME280;43467;50.890;5.982;2022-12-18T08:28:04;101110.59;;;-1.25;55.95
36234;BME280;43467;50.890;5.982;2022-12-18T08:30:29;101108.19;;;-1.13;55.60
36234;BME280;43467;50.890;5.982;2022-12-18T08:32:54;101102.97;;;-1.13;55.96
36234;BME280;43467;50.890;5.982;2022-12-18T08:35:20;101097.16;;;-0.99;55.17
36234;BME280;43467;50.890;5.982;2022-12-18T08:37:45;101106.84;;;-0.87;54.81
36234;BME280;43467;50.890;5.982;2022-12-18T08:40:11;101100.53;;;-1.04;55.32
36234;BME280;43467;50.890;5.982;2022-12-18T08:42:37;101105.94;;;-0.89;55.35
36234;BME280;43467;50.890;5.982;2022-12-18T08:45:22;101112.06;;;-0.85;55.25
36234;BME280;43467;50.890;5.982;2022-12-18T08:47:47;101116.47;;;-0.80;55.04
36234;BME280;43467;50.890;5.982;2022-12-18T08:50:12;101124.38;;;-0.74;55.11
36234;BME280;43467;50.890;5.982;2022-12-18T08:52:38;101124.38;;;-0.72;55.05
36234;BME280;43467;50.890;5.982;2022-12-18T08:55:04;101126.94;;;-0.75;55.84
36234;BME280;43467;50.890;5.982;2022-12-18T08:57:29;101120.81;;;-0.82;55.87
36234;BME280;43467;50.890;5.982;2022-12-18T08:59:54;101118.34;;;-0.71;56.16
36234;BME280;43467;50.890;5.982;2022-12-18T09:02:20;101108.94;;;-0.62;55.47
36234;BME280;43467;50.890;5.982;2022-12-18T09:04:47;101093.38;;;-0.59;55.38
36234;BME280;43467;50.890;5.982;2022-12-18T09:07:12;101083.00;;;-0.56;56.19
36234;BME280;43467;50.890;5.982;2022-12-18T09:09:38;101078.81;;;-0.46;55.53
36234;BME280;43467;50.890;5.982;2022-12-18T09:12:03;101073.72;;;-0.37;54.83
36234;BME280;43467;50.890;5.982;2022-12-18T09:14:29;101071.19;;;-0.31;55.50
36234;BME280;43467;50.890;5.982;2022-12-18T09:16:54;101070.31;;;-0.30;55.53
36234;BME280;43467;50.890;5.982;2022-12-18T09:19:19;101070.38;;;-0.24;55.43
36234;BME280;43467;50.890;5.982;2022-12-18T09:21:45;101053.19;;;-0.13;55.18
36234;BME280;43467;50.890;5.982;2022-12-18T09:24:14;101071.50;;;0.01;54.56
36234;BME280;43467;50.890;5.982;2022-12-18T09:26:40;101065.53;;;0.08;54.71
36234;BME280;43467;50.890;5.982;2022-12-18T09:29:05;101063.06;;;0.20;54.58
36234;BME280;43467;50.890;5.982;2022-12-18T09:31:32;101065.66;;;0.22;54.39
36234;BME280;43467;50.890;5.982;2022-12-18T09:33:58;101074.47;;;0.34;54.43
36234;BME280;43467;50.890;5.982;2022-12-18T09:36:24;101083.28;;;0.50;53.94
36234;BME280;43467;50.890;5.982;2022-12-18T09:38:49;101077.22;;;0.51;54.06
36234;BME280;43467;50.890;5.982;2022-12-18T09:44:00;101063.47;;;0.69;53.73
36234;BME280;43467;50.890;5.982;2022-12-18T09:46:33;101058.28;;;0.78;53.48
36234;BME280;43467;50.890;5.982;2022-12-18T09:49:07;101060.91;;;0.76;53.85
36234;BME280;43467;50.890;5.982;2022-12-18T09:52:02;101065.34;;;0.88;53.40
36234;BME280;43467;50.890;5.982;2022-12-18T09:54:38;101057.50;;;0.86;53.60
36234;BME280;43467;50.890;5.982;2022-12-18T09:57:24;101056.72;;;1.01;53.84
36234;BME280;43467;50.890;5.982;2022-12-18T09:59:56;101057.63;;;1.02;53.89
36234;BME280;43467;50.890;5.982;2022-12-18T10:02:25;101056.75;;;1.10;53.42
36234;BME280;43467;50.890;5.982;2022-12-18T10:05:12;101060.28;;;1.18;53.29
36234;BME280;43467;50.890;5.982;2022-12-18T10:10:32;101055.94;;;1.19;53.84
36234;BME280;43467;50.890;5.982;2022-12-18T10:15:57;101048.22;;;1.34;53.16
36234;BME280;43467;50.890;5.982;2022-12-18T10:21:00;101057.88;;;1.61;52.93
36234;BME280;43467;50.890;5.982;2022-12-18T10:23:39;101044.81;;;1.56;52.90
36234;BME280;43467;50.890;5.982;2022-12-18T10:26:11;101043.09;;;1.67;53.07
36234;BME280;43467;50.890;5.982;2022-12-18T10:28:39;101047.47;;;1.71;53.49
36234;BME280;43467;50.890;5.982;2022-12-18T10:31:27;101041.41;;;1.77;53.41
36234;BME280;43467;50.890;5.982;2022-12-18T10:33:53;101049.28;;;1.83;53.55
36234;BME280;43467;50.890;5.982;2022-12-18T10:36:20;101047.50;;;1.83;53.78
36234;BME280;43467;50.890;5.982;2022-12-18T10:38:45;101045.81;;;1.87;53.88
36234;BME280;43467;50.890;5.982;2022-12-18T10:44:17;101027.53;;;1.90;53.85
36234;BME280;43467;50.890;5.982;2022-12-18T10:46:45;101028.41;;;2.03;53.82
36234;BME280;43467;50.890;5.982;2022-12-18T10:49:38;101024.94;;;2.04;53.63
36234;BME280;43467;50.890;5.982;2022-12-18T10:52:23;101019.72;;;2.05;54.26
36234;BME280;43467;50.890;5.982;2022-12-18T10:55:02;101027.53;;;2.13;54.38
36234;BME280;43467;50.890;5.982;2022-12-18T10:57:39;101015.38;;;2.19;54.27
36234;BME280;43467;50.890;5.982;2022-12-18T11:00:28;100998.84;;;2.31;54.16
36234;BME280;43467;50.890;5.982;2022-12-18T11:02:54;100993.59;;;2.34;54.53
36234;BME280;43467;50.890;5.982;2022-12-18T11:05:30;101006.69;;;2.48;54.10
36234;BME280;43467;50.890;5.982;2022-12-18T11:07:56;101001.44;;;2.54;54.50
36234;BME280;43467;50.890;5.982;2022-12-18T11:10:28;100997.94;;;2.58;53.70
36234;BME280;43467;50.890;5.982;2022-12-18T11:12:54;100989.22;;;2.59;54.39
36234;BME280;43467;50.890;5.982;2022-12-18T11:15:23;100987.47;;;2.68;53.98
36234;BME280;43467;50.890;5.982;2022-12-18T11:17:50;100980.50;;;2.72;54.41
36234;BME280;43467;50.890;5.982;2022-12-18T11:25:24;100977.03;;;2.61;55.03
36234;BME280;43467;50.890;5.982;2022-12-18T11:28:35;100983.13;;;2.63;54.97
36234;BME280;43467;50.890;5.982;2022-12-18T11:33:39;100977.00;;;2.67;54.87
36234;BME280;43467;50.890;5.982;2022-12-18T11:36:08;100983.94;;;2.83;54.54
36234;BME280;43467;50.890;5.982;2022-12-18T11:38:39;100968.28;;;2.75;54.83
36234;BME280;43467;50.890;5.982;2022-12-18T11:41:29;100971.75;;;2.79;55.08
36234;BME280;43467;50.890;5.982;2022-12-18T11:44:29;100957.75;;;2.98;54.75
36234;BME280;43467;50.890;5.982;2022-12-18T11:47:03;100949.94;;;2.92;54.54
36234;BME280;43467;50.890;5.982;2022-12-18T11:49:34;100951.66;;;2.99;54.57
36234;BME280;43467;50.890;5.982;2022-12-18T11:52:04;100950.75;;;3.08;54.75
36234;BME280;43467;50.890;5.982;2022-12-18T11:54:35;100956.81;;;3.14;54.54
36234;BME280;43467;50.890;5.982;2022-12-18T11:59:56;100947.19;;;3.30;54.08
36234;BME280;43467;50.890;5.982;2022-12-18T12:02:34;100941.03;;;3.36;54.31
36234;BME280;43467;50.890;5.982;2022-12-18T12:05:20;100941.97;;;3.19;54.09
36234;BME280;43467;50.890;5.982;2022-12-18T12:10:37;100921.84;;;3.32;54.12
36234;BME280;43467;50.890;5.982;2022-12-18T12:21:27;100916.47;;;3.56;53.07
36234;BME280;43467;50.890;5.982;2022-12-18T12:29:50;100895.44;;;3.67;53.91
36234;BME280;43467;50.890;5.982;2022-12-18T12:40:23;100889.34;;;3.65;53.44
36234;BME280;43467;50.890;5.982;2022-12-18T12:42:55;100861.47;;;3.61;53.68
36234;BME280;43467;50.890;5.982;2022-12-18T12:45:46;100864.06;;;3.65;53.60
36234;BME280;43467;50.890;5.982;2022-12-18T12:48:48;100863.13;;;3.74;53.25
36234;BME280;43467;50.890;5.982;2022-12-18T12:53:49;100859.66;;;3.67;53.12
36234;BME280;43467;50.890;5.982;2022-12-18T12:56:17;100860.50;;;3.74;53.54
36234;BME280;43467;50.890;5.982;2022-12-18T12:59:22;100855.22;;;3.77;53.50
36234;BME280;43467;50.890;5.982;2022-12-18T13:02:00;100849.13;;;3.75;53.45
36234;BME280;43467;50.890;5.982;2022-12-18T13:09:33;100837.69;;;3.85;53.34
36234;BME280;43467;50.890;5.982;2022-12-18T13:12:10;100836.81;;;3.83;53.67
36234;BME280;43467;50.890;5.982;2022-12-18T13:15:12;100824.59;;;3.85;53.34
36234;BME280;43467;50.890;5.982;2022-12-18T13:17:38;100838.53;;;3.90;53.50
36234;BME280;43467;50.890;5.982;2022-12-18T13:20:04;100835.91;;;3.89;53.23
36234;BME280;43467;50.890;5.982;2022-12-18T13:22:53;100830.69;;;3.87;52.87
36234;BME280;43467;50.890;5.982;2022-12-18T13:25:32;100817.50;;;3.96;52.83
36234;BME280;43467;50.890;5.982;2022-12-18T13:35:51;100800.97;;;3.91;53.21
36234;BME280;43467;50.890;5.982;2022-12-18T13:38:21;100817.53;;;3.93;53.11
36234;BME280;43467;50.890;5.982;2022-12-18T13:48:51;100806.06;;;4.05;52.93
36234;BME280;43467;50.890;5.982;2022-12-18T13:51:19;100809.56;;;4.07;52.10
36234;BME280;43467;50.890;5.982;2022-12-18T13:53:49;100805.16;;;4.10;51.94
36234;BME280;43467;50.890;5.982;2022-12-18T13:56:23;100797.25;;;4.13;51.70
36234;BME280;43467;50.890;5.982;2022-12-18T13:59:16;100796.31;;;4.17;51.56
36234;BME280;43467;50.890;5.982;2022-12-18T14:01:48;100798.16;;;4.11;51.78
36234;BME280;43467;50.890;5.982;2022-12-18T14:04:32;100797.16;;;4.22;51.90
36234;BME280;43467;50.890;5.982;2022-12-18T14:07:03;100791.81;;;4.29;51.26
36234;BME280;43467;50.890;5.982;2022-12-18T14:09:33;100792.66;;;4.34;51.70
36234;BME280;43467;50.890;5.982;2022-12-18T14:12:00;100789.19;;;4.32;51.40
36234;BME280;43467;50.890;5.982;2022-12-18T14:14:46;100794.44;;;4.30;51.55
36234;BME280;43467;50.890;5.982;2022-12-18T14:17:13;100794.44;;;4.30;51.33
36234;BME280;43467;50.890;5.982;2022-12-18T14:19:44;100789.13;;;4.36;51.02
36234;BME280;43467;50.890;5.982;2022-12-18T14:22:25;100796.91;;;4.42;51.32
36234;BME280;43467;50.890;5.982;2022-12-18T14:27:43;100783.09;;;4.28;51.40
36234;BME280;43467;50.890;5.982;2022-12-18T14:30:40;100798.63;;;4.45;51.08
36234;BME280;43467;50.890;5.982;2022-12-18T14:33:13;100803.00;;;4.46;50.85
36234;BME280;43467;50.890;5.982;2022-12-18T14:35:52;100809.94;;;4.51;51.40
36234;BME280;43467;50.890;5.982;2022-12-18T14:41:00;100809.94;;;4.50;51.10
36234;BME280;43467;50.890;5.982;2022-12-18T14:43:27;100813.38;;;4.56;51.18
36234;BME280;43467;50.890;5.982;2022-12-18T14:45:54;100809.00;;;4.54;51.47
36234;BME280;43467;50.890;5.982;2022-12-18T14:54:15;100815.94;;;4.58;50.89